sensor_id;sensor_type;location;lat;lon;timestamp;temperature;humidity
33863;DHT22;20158;51.436;-2.742;2023-08-21T00:00:18;18.70;73.50
33863;DHT22;20158;51.436;-2.742;2023-08-21T00:02:44;18.70;73.60
33863;DHT22;20158;51.436;-2.742;2023-08-21T00:05:10;18.60;73.50
33863;DHT22;20158;51.436;-2.742;2023-08-21T00:07:37;18.60;73.50
33863;DHT22;20158;51.436;-2.742;2023-08-21T00:10:03;18.60;73.60
33863;DHT22;20158;51.436;-2.742;2023-08-21T00:12:29;18.60;73.70
33863;DHT22;20158;51.436;-2.742;2023-08-21T00:14:55;18.50;73.50
33863;DHT22;20158;51.436;-2.742;2023-08-21T00:17:21;18.50;73.50
33863;DHT22;20158;51.436;-2.742;2023-08-21T00:19:47;18.50;73.70
33863;DHT22;20158;51.436;-2.742;2023-08-21T00:22:13;18.50;73.60
33863;DHT22;20158;51.436;-2.742;2023-08-21T00:24:39;18.40;73.50
33863;DHT22;20158;51.436;-2.742;2023-08-21T00:27:05;18.40;73.50
33863;DHT22;20158;51.436;-2.742;2023-08-21T00:29:31;18.40;73.60
33863;DHT22;20158;51.436;-2.742;2023-08-21T00:31:57;18.40;73.60
33863;DHT22;20158;51.436;-2.742;2023-08-21T00:34:23;18.40;73.60
33863;DHT22;20158;51.436;-2.742;2023-08-21T00:36:49;18.40;73.60
33863;DHT22;20158;51.436;-2.742;2023-08-21T00:39:15;18.40;73.70
33863;DHT22;20158;51.436;-2.742;2023-08-21T00:41:41;18.30;73.60
33863;DHT22;20158;51.436;-2.742;2023-08-21T00:44:08;18.30;73.60
33863;DHT22;20158;51.436;-2.742;2023-08-21T00:46:34;18.30;73.60
33863;DHT22;20158;51.436;-2.742;2023-08-21T00:49:01;18.30;73.70
33863;DHT22;20158;51.436;-2.742;2023-08-21T00:51:28;18.30;73.70
33863;DHT22;20158;51.436;-2.742;2023-08-21T00:53:54;18.30;73.70
33863;DHT22;20158;51.436;-2.742;2023-08-21T00:56:21;18.30;73.70
33863;DHT22;20158;51.436;-2.742;2023-08-21T00:58:47;18.30;73.80
33863;DHT22;20158;51.436;-2.742;2023-08-21T01:01:14;18.30;73.80
33863;DHT22;20158;51.436;-2.742;2023-08-21T01:03:41;18.30;73.90
33863;DHT22;20158;51.436;-2.742;2023-08-21T01:06:07;18.30;73.90
33863;DHT22;20158;51.436;-2.742;2023-08-21T01:08:53;18.30;73.90
33863;DHT22;20158;51.436;-2.742;2023-08-21T01:11:26;18.30;74.00
33863;DHT22;20158;51.436;-2.742;2023-08-21T01:16:31;18.20;73.90
33863;DHT22;20158;51.436;-2.742;2023-08-21T01:18:59;18.30;74.00
33863;DHT22;20158;51.436;-2.742;2023-08-21T01:21:26;18.30;74.10
33863;DHT22;20158;51.436;-2.742;2023-08-21T01:23:53;18.20;73.90
33863;DHT22;20158;51.436;-2.742;2023-08-21T01:26:19;18.20;73.90
33863;DHT22;20158;51.436;-2.742;2023-08-21T01:28:49;18.20;74.00
33863;DHT22;20158;51.436;-2.742;2023-08-21T01:31:24;18.20;74.00
33863;DHT22;20158;51.436;-2.742;2023-08-21T01:33:56;18.20;74.10
33863;DHT22;20158;51.436;-2.742;2023-08-21T01:36:24;18.20;74.10
33863;DHT22;20158;51.436;-2.742;2023-08-21T01:38:52;18.10;73.90
33863;DHT22;20158;51.436;-2.742;2023-08-21T01:41:23;18.10;74.00
33863;DHT22;20158;51.436;-2.742;2023-08-21T01:43:51;18.10;74.00
33863;DHT22;20158;51.436;-2.742;2023-08-21T01:46:17;18.10;74.00
33863;DHT22;20158;51.436;-2.742;2023-08-21T01:48:43;18.10;74.00
33863;DHT22;20158;51.436;-2.742;2023-08-21T01:51:09;18.00;73.90
33863;DHT22;20158;51.436;-2.742;2023-08-21T01:53:35;18.00;73.90
33863;DHT22;20158;51.436;-2.742;2023-08-21T01:56:01;18.00;73.90
33863;DHT22;20158;51.436;-2.742;2023-08-21T01:58:27;18.00;74.00
33863;DHT22;20158;51.436;-2.742;2023-08-21T02:00:54;17.90;73.80
33863;DHT22;20158;51.436;-2.742;2023-08-21T02:03:20;17.90;73.90
33863;DHT22;20158;51.436;-2.742;2023-08-21T02:05:46;17.80;73.70
33863;DHT22;20158;51.436;-2.742;2023-08-21T02:08:13;17.80;73.80
33863;DHT22;20158;51.436;-2.742;2023-08-21T02:10:50;17.80;73.80
33863;DHT22;20158;51.436;-2.742;2023-08-21T02:13:16;17.80;73.90
33863;DHT22;20158;51.436;-2.742;2023-08-21T02:15:42;17.70;73.70
33863;DHT22;20158;51.436;-2.742;2023-08-21T02:18:08;17.70;73.70
33863;DHT22;20158;51.436;-2.742;2023-08-21T02:20:34;17.60;73.60
33863;DHT22;20158;51.436;-2.742;2023-08-21T02:23:01;17.60;73.70
33863;DHT22;20158;51.436;-2.742;2023-08-21T02:25:30;17.60;73.70
33863;DHT22;20158;51.436;-2.742;2023-08-21T02:27:56;17.50;73.60
33863;DHT22;20158;51.436;-2.742;2023-08-21T02:30:22;17.50;73.60
33863;DHT22;20158;51.436;-2.742;2023-08-21T02:32:52;17.50;73.70
33863;DHT22;20158;51.436;-2.742;2023-08-21T02:35:19;17.40;73.60
33863;DHT22;20158;51.436;-2.742;2023-08-21T02:37:45;17.40;74.10
33863;DHT22;20158;51.436;-2.742;2023-08-21T02:40:11;17.40;73.60
33863;DHT22;20158;51.436;-2.742;2023-08-21T02:42:38;17.30;73.50
33863;DHT22;20158;51.436;-2.742;2023-08-21T02:45:05;17.30;73.50
33863;DHT22;20158;51.436;-2.742;2023-08-21T02:47:37;17.30;73.60
33863;DHT22;20158;51.436;-2.742;2023-08-21T02:50:08;17.20;73.40
33863;DHT22;20158;51.436;-2.742;2023-08-21T02:52:34;17.20;73.50
33863;DHT22;20158;51.436;-2.742;2023-08-21T02:55:02;17.20;73.50
33863;DHT22;20158;51.436;-2.742;2023-08-21T02:57:28;17.10;73.30
33863;DHT22;20158;51.436;-2.742;2023-08-21T02:59:55;17.20;73.50
33863;DHT22;20158;51.436;-2.742;2023-08-21T03:02:21;17.10;73.30
33863;DHT22;20158;51.436;-2.742;2023-08-21T03:04:48;17.10;73.40
33863;DHT22;20158;51.436;-2.742;2023-08-21T03:07:15;17.10;73.40
33863;DHT22;20158;51.436;-2.742;2023-08-21T03:09:41;17.00;73.20
33863;DHT22;20158;51.436;-2.742;2023-08-21T03:12:08;17.00;73.30
33863;DHT22;20158;51.436;-2.742;2023-08-21T03:14:34;16.90;73.10
33863;DHT22;20158;51.436;-2.742;2023-08-21T03:17:00;16.90;73.20
33863;DHT22;20158;51.436;-2.742;2023-08-21T03:19:27;16.90;73.20
33863;DHT22;20158;51.436;-2.742;2023-08-21T03:21:53;16.90;73.30
33863;DHT22;20158;51.436;-2.742;2023-08-21T03:24:19;16.90;73.30
33863;DHT22;20158;51.436;-2.742;2023-08-21T03:26:46;16.90;73.30
33863;DHT22;20158;51.436;-2.742;2023-08-21T03:29:11;16.80;73.20
33863;DHT22;20158;51.436;-2.742;2023-08-21T03:31:37;16.80;73.20
33863;DHT22;20158;51.436;-2.742;2023-08-21T03:34:04;16.80;73.20
33863;DHT22;20158;51.436;-2.742;2023-08-21T03:36:30;16.80;73.20
33863;DHT22;20158;51.436;-2.742;2023-08-21T03:39:02;16.80;73.20
33863;DHT22;20158;51.436;-2.742;2023-08-21T03:41:32;16.80;73.20
33863;DHT22;20158;51.436;-2.742;2023-08-21T03:43:59;16.70;73.10
33863;DHT22;20158;51.436;-2.742;2023-08-21T03:46:25;16.70;73.10
33863;DHT22;20158;51.436;-2.742;2023-08-21T03:48:53;16.70;73.10
33863;DHT22;20158;51.436;-2.742;2023-08-21T03:51:20;16.60;73.00
33863;DHT22;20158;51.436;-2.742;2023-08-21T03:53:47;16.60;73.00
33863;DHT22;20158;51.436;-2.742;2023-08-21T03:56:14;16.60;73.00
33863;DHT22;20158;51.436;-2.742;2023-08-21T03:58:44;16.60;73.00
33863;DHT22;20158;51.436;-2.742;2023-08-21T04:01:11;16.60;73.10
33863;DHT22;20158;51.436;-2.742;2023-08-21T04:03:37;16.50;72.90
33863;DHT22;20158;51.436;-2.742;2023-08-21T04:06:03;16.50;73.00
33863;DHT22;20158;51.436;-2.742;2023-08-21T04:08:29;16.50;73.00
33863;DHT22;20158;51.436;-2.742;2023-08-21T04:10:55;16.50;73.10
33863;DHT22;20158;51.436;-2.742;2023-08-21T04:13:25;16.50;73.10
33863;DHT22;20158;51.436;-2.742;2023-08-21T04:15:53;16.50;73.10
33863;DHT22;20158;51.436;-2.742;2023-08-21T04:18:19;16.50;73.10
33863;DHT22;20158;51.436;-2.742;2023-08-21T04:20:48;16.50;73.20
33863;DHT22;20158;51.436;-2.742;2023-08-21T04:23:14;16.50;73.20
33863;DHT22;20158;51.436;-2.742;2023-08-21T04:25:40;16.50;73.10
33863;DHT22;20158;51.436;-2.742;2023-08-21T04:28:06;16.40;73.00
33863;DHT22;20158;51.436;-2.742;2023-08-21T04:30:33;16.40;73.00
33863;DHT22;20158;51.436;-2.742;2023-08-21T04:33:00;16.40;73.00
33863;DHT22;20158;51.436;-2.742;2023-08-21T04:35:26;16.40;73.00
33863;DHT22;20158;51.436;-2.742;2023-08-21T04:37:53;16.40;73.10
33863;DHT22;20158;51.436;-2.742;2023-08-21T04:40:24;16.30;72.90
33863;DHT22;20158;51.436;-2.742;2023-08-21T04:42:50;16.30;72.90
33863;DHT22;20158;51.436;-2.742;2023-08-21T04:45:19;16.30;73.00
33863;DHT22;20158;51.436;-2.742;2023-08-21T04:47:45;16.30;73.00
33863;DHT22;20158;51.436;-2.742;2023-08-21T04:50:12;16.20;72.90
33863;DHT22;20158;51.436;-2.742;2023-08-21T04:52:38;16.30;73.10
33863;DHT22;20158;51.436;-2.742;2023-08-21T04:55:05;16.20;72.90
33863;DHT22;20158;51.436;-2.742;2023-08-21T04:57:33;16.20;73.00
33863;DHT22;20158;51.436;-2.742;2023-08-21T05:00:00;16.20;73.00
33863;DHT22;20158;51.436;-2.742;2023-08-21T05:02:33;16.20;73.10
33863;DHT22;20158;51.436;-2.742;2023-08-21T05:05:01;16.20;73.00
33863;DHT22;20158;51.436;-2.742;2023-08-21T05:07:28;16.20;73.10
33863;DHT22;20158;51.436;-2.742;2023-08-21T05:09:54;16.20;73.10
33863;DHT22;20158;51.436;-2.742;2023-08-21T05:12:21;16.10;72.90
33863;DHT22;20158;51.436;-2.742;2023-08-21T05:14:47;16.10;72.90
33863;DHT22;20158;51.436;-2.742;2023-08-21T05:17:13;16.10;72.90
33863;DHT22;20158;51.436;-2.742;2023-08-21T05:19:40;16.10;72.90
33863;DHT22;20158;51.436;-2.742;2023-08-21T05:22:07;16.10;72.90
33863;DHT22;20158;51.436;-2.742;2023-08-21T05:24:33;16.10;72.90
33863;DHT22;20158;51.436;-2.742;2023-08-21T05:27:03;16.10;72.90
33863;DHT22;20158;51.436;-2.742;2023-08-21T05:29:30;16.10;72.90
33863;DHT22;20158;51.436;-2.742;2023-08-21T05:31:57;16.10;72.90
33863;DHT22;20158;51.436;-2.742;2023-08-21T05:34:22;16.10;72.90
33863;DHT22;20158;51.436;-2.742;2023-08-21T05:36:51;16.10;72.90
33863;DHT22;20158;51.436;-2.742;2023-08-21T05:39:21;16.10;72.90
33863;DHT22;20158;51.436;-2.742;2023-08-21T05:41:48;16.10;72.90
33863;DHT22;20158;51.436;-2.742;2023-08-21T05:44:15;16.10;72.90
33863;DHT22;20158;51.436;-2.742;2023-08-21T05:46:41;16.10;72.90
33863;DHT22;20158;51.436;-2.742;2023-08-21T05:49:07;16.10;73.20
33863;DHT22;20158;51.436;-2.742;2023-08-21T05:51:34;16.20;74.10
33863;DHT22;20158;51.436;-2.742;2023-08-21T05:54:00;16.30;74.80
33863;DHT22;20158;51.436;-2.742;2023-08-21T05:56:26;16.50;75.60
33863;DHT22;20158;51.436;-2.742;2023-08-21T05:58:52;16.60;76.10
33863;DHT22;20158;51.436;-2.742;2023-08-21T06:01:18;16.70;77.20
33863;DHT22;20158;51.436;-2.742;2023-08-21T06:03:45;16.90;77.20
33863;DHT22;20158;51.436;-2.742;2023-08-21T06:06:31;17.00;77.60
33863;DHT22;20158;51.436;-2.742;2023-08-21T06:08:58;17.20;78.10
33863;DHT22;20158;51.436;-2.742;2023-08-21T06:11:24;17.30;78.50
33863;DHT22;20158;51.436;-2.742;2023-08-21T06:13:50;17.40;78.80
33863;DHT22;20158;51.436;-2.742;2023-08-21T06:16:17;17.50;79.10
33863;DHT22;20158;51.436;-2.742;2023-08-21T06:18:45;17.60;79.20
33863;DHT22;20158;51.436;-2.742;2023-08-21T06:21:11;17.70;79.40
33863;DHT22;20158;51.436;-2.742;2023-08-21T06:23:37;17.80;79.60
33863;DHT22;20158;51.436;-2.742;2023-08-21T06:26:03;17.90;79.80
33863;DHT22;20158;51.436;-2.742;2023-08-21T06:28:30;18.00;79.90
33863;DHT22;20158;51.436;-2.742;2023-08-21T06:30:57;18.10;80.00
33863;DHT22;20158;51.436;-2.742;2023-08-21T06:33:24;18.20;80.10
33863;DHT22;20158;51.436;-2.742;2023-08-21T06:35:50;18.30;80.20
33863;DHT22;20158;51.436;-2.742;2023-08-21T06:38:16;18.40;80.20
33863;DHT22;20158;51.436;-2.742;2023-08-21T06:40:45;18.50;80.20
33863;DHT22;20158;51.436;-2.742;2023-08-21T06:43:12;18.50;79.90
33863;DHT22;20158;51.436;-2.742;2023-08-21T06:45:42;18.60;79.90
33863;DHT22;20158;51.436;-2.742;2023-08-21T06:48:09;18.70;79.70
33863;DHT22;20158;51.436;-2.742;2023-08-21T06:50:38;18.70;79.50
33863;DHT22;20158;51.436;-2.742;2023-08-21T06:53:05;18.80;79.40
33863;DHT22;20158;51.436;-2.742;2023-08-21T06:55:31;18.90;79.30
33863;DHT22;20158;51.436;-2.742;2023-08-21T06:57:58;18.90;79.10
33863;DHT22;20158;51.436;-2.742;2023-08-21T07:00:24;19.00;79.10
33863;DHT22;20158;51.436;-2.742;2023-08-21T07:02:51;19.00;78.90
33863;DHT22;20158;51.436;-2.742;2023-08-21T07:05:17;19.10;78.90
33863;DHT22;20158;51.436;-2.742;2023-08-21T07:07:44;19.10;78.60
33863;DHT22;20158;51.436;-2.742;2023-08-21T07:10:10;19.20;78.60
33863;DHT22;20158;51.436;-2.742;2023-08-21T07:12:37;19.20;78.40
33863;DHT22;20158;51.436;-2.742;2023-08-21T07:15:04;19.20;78.20
33863;DHT22;20158;51.436;-2.742;2023-08-21T07:17:31;19.30;78.10
33863;DHT22;20158;51.436;-2.742;2023-08-21T07:19:57;19.40;78.00
33863;DHT22;20158;51.436;-2.742;2023-08-21T07:22:23;19.50;78.00
33863;DHT22;20158;51.436;-2.742;2023-08-21T07:24:49;19.60;77.90
33863;DHT22;20158;51.436;-2.742;2023-08-21T07:27:16;19.70;77.90
33863;DHT22;20158;51.436;-2.742;2023-08-21T07:29:43;20.00;78.20
33863;DHT22;20158;51.436;-2.742;2023-08-21T07:32:09;20.40;77.90
33863;DHT22;20158;51.436;-2.742;2023-08-21T07:34:39;20.70;77.30
33863;DHT22;20158;51.436;-2.742;2023-08-21T07:37:07;20.90;76.70
33863;DHT22;20158;51.436;-2.742;2023-08-21T07:39:35;21.10;76.40
33863;DHT22;20158;51.436;-2.742;2023-08-21T07:42:02;21.10;76.00
33863;DHT22;20158;51.436;-2.742;2023-08-21T07:44:30;21.10;75.80
33863;DHT22;20158;51.436;-2.742;2023-08-21T07:46:56;21.10;75.80
33863;DHT22;20158;51.436;-2.742;2023-08-21T07:49:26;21.20;75.80
33863;DHT22;20158;51.436;-2.742;2023-08-21T07:51:53;21.30;75.60
33863;DHT22;20158;51.436;-2.742;2023-08-21T07:54:20;21.40;75.50
33863;DHT22;20158;51.436;-2.742;2023-08-21T07:56:46;21.50;75.30
33863;DHT22;20158;51.436;-2.742;2023-08-21T07:59:14;21.60;75.10
33863;DHT22;20158;51.436;-2.742;2023-08-21T08:01:41;21.70;75.00
33863;DHT22;20158;51.436;-2.742;2023-08-21T08:04:08;21.70;74.80
33863;DHT22;20158;51.436;-2.742;2023-08-21T08:06:35;21.80;74.80
33863;DHT22;20158;51.436;-2.742;2023-08-21T08:09:07;21.80;74.70
33863;DHT22;20158;51.436;-2.742;2023-08-21T08:11:34;21.80;74.60
33863;DHT22;20158;51.436;-2.742;2023-08-21T08:14:00;21.90;74.60
33863;DHT22;20158;51.436;-2.742;2023-08-21T08:16:27;21.90;74.40
33863;DHT22;20158;51.436;-2.742;2023-08-21T08:18:53;22.00;74.30
33863;DHT22;20158;51.436;-2.742;2023-08-21T08:21:20;22.10;74.80
33863;DHT22;20158;51.436;-2.742;2023-08-21T08:23:47;22.10;74.00
33863;DHT22;20158;51.436;-2.742;2023-08-21T08:26:13;22.20;73.80
33863;DHT22;20158;51.436;-2.742;2023-08-21T08:28:43;22.30;73.60
33863;DHT22;20158;51.436;-2.742;2023-08-21T08:31:16;22.40;73.50
33863;DHT22;20158;51.436;-2.742;2023-08-21T08:33:44;22.50;73.40
33863;DHT22;20158;51.436;-2.742;2023-08-21T08:36:10;22.50;73.20
33863;DHT22;20158;51.436;-2.742;2023-08-21T08:38:40;22.60;73.20
33863;DHT22;20158;51.436;-2.742;2023-08-21T08:41:24;22.70;73.10
33863;DHT22;20158;51.436;-2.742;2023-08-21T08:43:51;22.80;72.80
33863;DHT22;20158;51.436;-2.742;2023-08-21T08:46:21;22.90;72.80
33863;DHT22;20158;51.436;-2.742;2023-08-21T08:48:47;23.00;72.80
33863;DHT22;20158;51.436;-2.742;2023-08-21T08:51:14;23.10;72.70
33863;DHT22;20158;51.436;-2.742;2023-08-21T08:53:42;23.10;72.30
33863;DHT22;20158;51.436;-2.742;2023-08-21T08:56:08;23.20;72.20
33863;DHT22;20158;51.436;-2.742;2023-08-21T08:58:35;23.40;72.20
33863;DHT22;20158;51.436;-2.742;2023-08-21T09:01:01;23.50;72.50
33863;DHT22;20158;51.436;-2.742;2023-08-21T09:03:28;23.70;71.90
33863;DHT22;20158;51.436;-2.742;2023-08-21T09:05:55;23.80;71.60
33863;DHT22;20158;51.436;-2.742;2023-08-21T09:08:29;24.00;71.50
33863;DHT22;20158;51.436;-2.742;2023-08-21T09:10:55;24.10;71.20
33863;DHT22;20158;51.436;-2.742;2023-08-21T09:13:27;24.30;71.10
33863;DHT22;20158;51.436;-2.742;2023-08-21T09:15:54;24.40;70.80
33863;DHT22;20158;51.436;-2.742;2023-08-21T09:18:21;24.60;70.60
33863;DHT22;20158;51.436;-2.742;2023-08-21T09:20:47;24.70;70.30
33863;DHT22;20158;51.436;-2.742;2023-08-21T09:23:18;24.80;70.00
33863;DHT22;20158;51.436;-2.742;2023-08-21T09:25:46;24.90;69.70
33863;DHT22;20158;51.436;-2.742;2023-08-21T09:28:14;25.00;69.70
33863;DHT22;20158;51.436;-2.742;2023-08-21T09:30:52;25.00;69.40
33863;DHT22;20158;51.436;-2.742;2023-08-21T09:33:20;25.10;69.30
33863;DHT22;20158;51.436;-2.742;2023-08-21T09:35:53;25.10;69.20
33863;DHT22;20158;51.436;-2.742;2023-08-21T09:38:45;25.10;69.00
33863;DHT22;20158;51.436;-2.742;2023-08-21T09:41:19;25.20;68.80
33863;DHT22;20158;51.436;-2.742;2023-08-21T09:43:47;25.20;68.50
33863;DHT22;20158;51.436;-2.742;2023-08-21T09:46:23;25.30;68.30
33863;DHT22;20158;51.436;-2.742;2023-08-21T09:48:51;25.40;67.90
33863;DHT22;20158;51.436;-2.742;2023-08-21T09:51:18;25.60;67.80
33863;DHT22;20158;51.436;-2.742;2023-08-21T09:53:48;25.60;67.60
33863;DHT22;20158;51.436;-2.742;2023-08-21T09:56:18;25.70;67.50
33863;DHT22;20158;51.436;-2.742;2023-08-21T09:58:47;25.70;67.80
33863;DHT22;20158;51.436;-2.742;2023-08-21T10:01:15;25.70;67.20
33863;DHT22;20158;51.436;-2.742;2023-08-21T10:03:43;25.70;67.10
33863;DHT22;20158;51.436;-2.742;2023-08-21T10:06:17;25.80;67.10
33863;DHT22;20158;51.436;-2.742;2023-08-21T10:08:50;25.80;67.00
33863;DHT22;20158;51.436;-2.742;2023-08-21T10:11:20;25.70;66.70
33863;DHT22;20158;51.436;-2.742;2023-08-21T10:13:48;25.70;66.70
33863;DHT22;20158;51.436;-2.742;2023-08-21T10:16:17;25.70;66.70
33863;DHT22;20158;51.436;-2.742;2023-08-21T10:18:45;25.70;66.70
33863;DHT22;20158;51.436;-2.742;2023-08-21T10:21:16;25.70;66.50
33863;DHT22;20158;51.436;-2.742;2023-08-21T10:23:47;25.80;66.40
33863;DHT22;20158;51.436;-2.742;2023-08-21T10:26:14;25.80;66.20
33863;DHT22;20158;51.436;-2.742;2023-08-21T10:29:00;25.80;66.00
33863;DHT22;20158;51.436;-2.742;2023-08-21T10:31:34;25.90;65.70
33863;DHT22;20158;51.436;-2.742;2023-08-21T10:34:11;25.90;65.70
33863;DHT22;20158;51.436;-2.742;2023-08-21T10:39:18;26.10;65.10
33863;DHT22;20158;51.436;-2.742;2023-08-21T10:42:08;26.20;65.00
33863;DHT22;20158;51.436;-2.742;2023-08-21T10:49:56;26.30;64.80
33863;DHT22;20158;51.436;-2.742;2023-08-21T10:52:36;26.40;64.70
33863;DHT22;20158;51.436;-2.742;2023-08-21T10:55:03;26.50;64.30
33863;DHT22;20158;51.436;-2.742;2023-08-21T10:57:33;26.50;64.20
33863;DHT22;20158;51.436;-2.742;2023-08-21T11:00:08;26.60;64.00
33863;DHT22;20158;51.436;-2.742;2023-08-21T11:02:36;26.70;63.80
33863;DHT22;20158;51.436;-2.742;2023-08-21T11:05:03;26.80;63.60
33863;DHT22;20158;51.436;-2.742;2023-08-21T11:07:41;27.00;63.50
33863;DHT22;20158;51.436;-2.742;2023-08-21T11:10:12;27.10;63.20
33863;DHT22;20158;51.436;-2.742;2023-08-21T11:12:48;27.20;63.00
33863;DHT22;20158;51.436;-2.742;2023-08-21T11:15:16;27.40;62.80
33863;DHT22;20158;51.436;-2.742;2023-08-21T11:17:57;27.50;62.60
33863;DHT22;20158;51.436;-2.742;2023-08-21T11:20:35;27.60;62.20
33863;DHT22;20158;51.436;-2.742;2023-08-21T11:23:04;27.80;62.10
33863;DHT22;20158;51.436;-2.742;2023-08-21T11:25:35;27.90;61.90
33863;DHT22;20158;51.436;-2.742;2023-08-21T11:28:06;28.00;61.70
33863;DHT22;20158;51.436;-2.742;2023-08-21T11:30:33;28.10;61.60
33863;DHT22;20158;51.436;-2.742;2023-08-21T11:35:32;28.40;61.30
33863;DHT22;20158;51.436;-2.742;2023-08-21T11:37:59;28.50;61.20
33863;DHT22;20158;51.436;-2.742;2023-08-21T11:40:26;28.60;60.90
33863;DHT22;20158;51.436;-2.742;2023-08-21T11:42:52;28.70;60.70
33863;DHT22;20158;51.436;-2.742;2023-08-21T11:45:25;28.70;60.30
33863;DHT22;20158;51.436;-2.742;2023-08-21T11:47:55;28.70;60.10
33863;DHT22;20158;51.436;-2.742;2023-08-21T11:50:22;28.70;59.90
33863;DHT22;20158;51.436;-2.742;2023-08-21T11:52:52;28.70;59.80
33863;DHT22;20158;51.436;-2.742;2023-08-21T11:55:18;28.70;59.60
33863;DHT22;20158;51.436;-2.742;2023-08-21T11:57:49;28.70;59.60
33863;DHT22;20158;51.436;-2.742;2023-08-21T12:00:20;28.70;59.40
33863;DHT22;20158;51.436;-2.742;2023-08-21T12:02:56;28.70;59.50
33863;DHT22;20158;51.436;-2.742;2023-08-21T12:05:23;28.70;59.30
33863;DHT22;20158;51.436;-2.742;2023-08-21T12:07:50;28.70;59.40
33863;DHT22;20158;51.436;-2.742;2023-08-21T12:10:27;28.80;59.30
33863;DHT22;20158;51.436;-2.742;2023-08-21T12:12:54;28.90;58.90
33863;DHT22;20158;51.436;-2.742;2023-08-21T12:15:21;29.00;58.80
33863;DHT22;20158;51.436;-2.742;2023-08-21T12:17:47;29.10;58.50
33863;DHT22;20158;51.436;-2.742;2023-08-21T12:20:14;29.20;58.40
33863;DHT22;20158;51.436;-2.742;2023-08-21T12:22:40;29.40;58.40
33863;DHT22;20158;51.436;-2.742;2023-08-21T12:25:10;29.70;58.10
33863;DHT22;20158;51.436;-2.742;2023-08-21T12:27:37;29.90;57.60
33863;DHT22;20158;51.436;-2.742;2023-08-21T12:30:05;30.10;57.30
33863;DHT22;20158;51.436;-2.742;2023-08-21T12:32:32;30.20;57.10
33863;DHT22;20158;51.436;-2.742;2023-08-21T12:34:59;30.40;57.00
33863;DHT22;20158;51.436;-2.742;2023-08-21T12:37:26;30.50;56.70
33863;DHT22;20158;51.436;-2.742;2023-08-21T12:39:53;30.70;56.60
33863;DHT22;20158;51.436;-2.742;2023-08-21T12:42:19;30.70;56.30
33863;DHT22;20158;51.436;-2.742;2023-08-21T12:44:46;30.70;56.10
33863;DHT22;20158;51.436;-2.742;2023-08-21T12:47:12;30.70;56.00
33863;DHT22;20158;51.436;-2.742;2023-08-21T12:49:38;30.60;55.90
33863;DHT22;20158;51.436;-2.742;2023-08-21T12:52:05;30.60;55.90
33863;DHT22;20158;51.436;-2.742;2023-08-21T12:54:39;30.60;55.80
33863;DHT22;20158;51.436;-2.742;2023-08-21T12:57:05;30.60;56.30
33863;DHT22;20158;51.436;-2.742;2023-08-21T12:59:33;30.60;55.70
33863;DHT22;20158;51.436;-2.742;2023-08-21T13:01:59;30.60;56.20
33863;DHT22;20158;51.436;-2.742;2023-08-21T13:04:27;30.50;55.50
33863;DHT22;20158;51.436;-2.742;2023-08-21T13:06:53;30.50;55.40
33863;DHT22;20158;51.436;-2.742;2023-08-21T13:09:20;30.50;55.20
33863;DHT22;20158;51.436;-2.742;2023-08-21T13:11:46;30.50;55.10
33863;DHT22;20158;51.436;-2.742;2023-08-21T13:14:13;30.50;55.10
33863;DHT22;20158;51.436;-2.742;2023-08-21T13:16:39;30.50;55.00
33863;DHT22;20158;51.436;-2.742;2023-08-21T13:19:05;30.50;55.00
33863;DHT22;20158;51.436;-2.742;2023-08-21T13:21:32;30.50;55.10
33863;DHT22;20158;51.436;-2.742;2023-08-21T13:23:58;30.50;55.00
33863;DHT22;20158;51.436;-2.742;2023-08-21T13:26:24;30.50;55.10
33863;DHT22;20158;51.436;-2.742;2023-08-21T13:28:51;30.50;55.00
33863;DHT22;20158;51.436;-2.742;2023-08-21T13:31:17;30.50;55.00
33863;DHT22;20158;51.436;-2.742;2023-08-21T13:33:49;30.50;55.00
33863;DHT22;20158;51.436;-2.742;2023-08-21T13:36:16;30.40;55.00
33863;DHT22;20158;51.436;-2.742;2023-08-21T13:38:43;30.50;55.10
33863;DHT22;20158;51.436;-2.742;2023-08-21T13:41:09;30.80;55.10
33863;DHT22;20158;51.436;-2.742;2023-08-21T13:43:38;31.10;54.70
33863;DHT22;20158;51.436;-2.742;2023-08-21T13:46:05;31.30;54.40
33863;DHT22;20158;51.436;-2.742;2023-08-21T13:48:32;31.40;54.10
33863;DHT22;20158;51.436;-2.742;2023-08-21T13:50:58;31.60;53.80
33863;DHT22;20158;51.436;-2.742;2023-08-21T13:53:24;31.60;53.70
33863;DHT22;20158;51.436;-2.742;2023-08-21T13:55:51;31.50;53.50
33863;DHT22;20158;51.436;-2.742;2023-08-21T13:58:18;31.40;53.50
33863;DHT22;20158;51.436;-2.742;2023-08-21T14:00:44;31.40;53.50
33863;DHT22;20158;51.436;-2.742;2023-08-21T14:03:10;31.30;53.50
33863;DHT22;20158;51.436;-2.742;2023-08-21T14:05:37;31.20;53.50
33863;DHT22;20158;51.436;-2.742;2023-08-21T14:08:03;31.20;53.70
33863;DHT22;20158;51.436;-2.742;2023-08-21T14:10:30;31.10;53.60
33863;DHT22;20158;51.436;-2.742;2023-08-21T14:12:56;31.10;53.60
33863;DHT22;20158;51.436;-2.742;2023-08-21T14:15:23;31.10;53.60
33863;DHT22;20158;51.436;-2.742;2023-08-21T14:17:55;30.90;53.50
33863;DHT22;20158;51.436;-2.742;2023-08-21T14:20:21;30.80;53.70
33863;DHT22;20158;51.436;-2.742;2023-08-21T14:22:47;30.70;53.80
33863;DHT22;20158;51.436;-2.742;2023-08-21T14:25:13;30.70;53.90
33863;DHT22;20158;51.436;-2.742;2023-08-21T14:27:41;30.70;54.00
33863;DHT22;20158;51.436;-2.742;2023-08-21T14:30:08;30.80;53.90
33863;DHT22;20158;51.436;-2.742;2023-08-21T14:32:37;30.80;53.70
33863;DHT22;20158;51.436;-2.742;2023-08-21T14:35:04;30.90;53.70
33863;DHT22;20158;51.436;-2.742;2023-08-21T14:37:37;30.90;54.20
33863;DHT22;20158;51.436;-2.742;2023-08-21T14:40:05;30.90;53.70
33863;DHT22;20158;51.436;-2.742;2023-08-21T14:42:36;30.80;53.80
33863;DHT22;20158;51.436;-2.742;2023-08-21T14:45:03;30.70;53.80
33863;DHT22;20158;51.436;-2.742;2023-08-21T14:47:30;30.70;54.00
33863;DHT22;20158;51.436;-2.742;2023-08-21T14:49:57;30.70;54.10
33863;DHT22;20158;51.436;-2.742;2023-08-21T14:52:24;30.80;53.90
33863;DHT22;20158;51.436;-2.742;2023-08-21T14:54:51;30.90;53.90
33863;DHT22;20158;51.436;-2.742;2023-08-21T14:57:17;30.90;53.90
33863;DHT22;20158;51.436;-2.742;2023-08-21T14:59:43;30.90;54.00
33863;DHT22;20158;51.436;-2.742;2023-08-21T15:02:15;30.80;54.00
33863;DHT22;20158;51.436;-2.742;2023-08-21T15:04:41;30.70;54.10
33863;DHT22;20158;51.436;-2.742;2023-08-21T15:07:07;30.70;54.20
33863;DHT22;20158;51.436;-2.742;2023-08-21T15:09:33;30.70;54.30
33863;DHT22;20158;51.436;-2.742;2023-08-21T15:12:00;30.70;54.40
33863;DHT22;20158;51.436;-2.742;2023-08-21T15:14:30;30.80;54.30
33863;DHT22;20158;51.436;-2.742;2023-08-21T15:17:03;30.90;54.20
33863;DHT22;20158;51.436;-2.742;2023-08-21T15:19:29;31.20;54.00
33863;DHT22;20158;51.436;-2.742;2023-08-21T15:21:58;31.50;53.50
33863;DHT22;20158;51.436;-2.742;2023-08-21T15:24:25;31.80;53.10
33863;DHT22;20158;51.436;-2.742;2023-08-21T15:26:51;31.90;52.80
33863;DHT22;20158;51.436;-2.742;2023-08-21T15:29:17;32.10;52.70
33863;DHT22;20158;51.436;-2.742;2023-08-21T15:31:43;32.20;52.50